Floral, Canada
Current Conditions -  °F | °C
As of 9:00 PM on Friday 21 Nov 2014 (Local Time) from CYXE Reporting Station
Overcast Overcast  
Wind Chill: 24°   Ceiling: 1400
Heat Index: 32°   Visibility: 12mi
Dew Point: 30°   Wind: 9mph
Humidity: 93%   Direction: 70°ENE
Pressure: 29.56"   Gusts: NA
Location:  52.07°N, 106.47°W
Report Text: CYXE 220300Z 07008KT 12SM SCT007 OVC014 M00/M01 A2956 RMK SF4SC4 BR SLP036
Loading
Personal Weather Stations






























Interactive Weather Map New forecast layout! Learn more

10-Day Weather Forecast

Advertisements
Track Severe Weather on mobile